Time;durP1;ratioP1;P1;durP2;ratioP2;P2;SDS_P1;SDS_P2;PMS_P1;PMS_P2;Temp;Humidity;BMP_temperature;BMP_pressure;BME280_temperature;BME280_humidity;BME280_pressure;Samples;Min_cycle;Max_cycle;Signal;HPM_P1;HPM_P2
2023/02/08 00:02:25;;;;;;;33.22;15.27;;;;;;;;;;10448081;28;20021;-79
2023/02/08 00:07:25;;;;;;;28.95;14.02;;;;;;;;;;10447212;28;20493;-78
2023/02/08 00:12:27;;;;;;;27.90;12.83;;;;;;;;;;10431172;28;20530;-82
2023/02/08 00:17:27;;;;;;;30.80;14.38;;;;;;;;;;10416992;28;20071;-74
2023/02/08 00:22:27;;;;;;;30.20;12.60;;;;;;;;;;10446906;28;20021;-76
2023/02/08 00:27:28;;;;;;;28.53;14.33;;;;;;;;;;10446410;28;20704;-81
2023/02/08 00:32:28;;;;;;;32.45;14.25;;;;;;;;;;10445687;28;20449;-77
2023/02/08 00:37:28;;;;;;;28.63;14.27;;;;;;;;;;10445895;28;20043;-78
2023/02/08 00:42:29;;;;;;;32.97;13.77;;;;;;;;;;10447306;28;20025;-81
2023/02/08 00:47:29;;;;;;;28.77;13.48;;;;;;;;;;10445549;28;20079;-75
2023/02/08 00:52:29;;;;;;;29.90;13.38;;;;;;;;;;10444621;28;20133;-78
2023/02/08 00:57:33;;;;;;;36.10;17.10;;;;;;;;;;10445628;28;20544;-79
2023/02/08 01:02:33;;;;;;;27.95;14.32;;;;;;;;;;10444801;28;20486;-79
2023/02/08 01:07:37;;;;;;;31.40;15.13;;;;;;;;;;10414929;28;20057;-77
2023/02/08 01:12:38;;;;;;;39.28;14.68;;;;;;;;;;10442264;28;20465;-73
2023/02/08 01:17:38;;;;;;;29.60;14.43;;;;;;;;;;10448406;28;20017;-72
2023/02/08 01:22:38;;;;;;;29.77;15.40;;;;;;;;;;10442083;28;20045;-77
2023/02/08 01:27:38;;;;;;;31.55;15.32;;;;;;;;;;10451455;28;20483;-73
2023/02/08 01:32:39;;;;;;;28.85;15.32;;;;;;;;;;10440900;28;20601;-76
2023/02/08 01:37:39;;;;;;;32.75;15.77;;;;;;;;;;10456913;28;20078;-76
2023/02/08 01:42:39;;;;;;;35.45;14.52;;;;;;;;;;10447808;28;20052;-78
2023/02/08 01:47:41;;;;;;;32.55;14.80;;;;;;;;;;10444308;28;20028;-77
2023/02/08 01:52:41;;;;;;;31.95;16.27;;;;;;;;;;10443157;28;20490;-79
2023/02/08 01:57:42;;;;;;;32.42;17.63;;;;;;;;;;10443093;28;20025;-73
2023/02/08 02:02:44;;;;;;;35.28;14.60;;;;;;;;;;10430592;28;20087;-73
2023/02/08 02:07:45;;;;;;;33.28;16.98;;;;;;;;;;10442659;28;20052;-78
2023/02/08 02:12:45;;;;;;;31.83;15.63;;;;;;;;;;10410411;28;20037;-78
2023/02/08 02:17:45;;;;;;;36.30;16.05;;;;;;;;;;10442750;28;20009;-78
2023/02/08 02:22:59;;;;;;;33.93;16.83;;;;;;;;;;10440713;28;20021;-76
2023/02/08 02:28:02;;;;;;;35.47;16.92;;;;;;;;;;10424419;28;20026;-76
2023/02/08 02:33:23;;;;;;;39.38;17.17;;;;;;;;;;10440956;28;20112;-74
2023/02/08 02:38:33;;;;;;;31.95;17.15;;;;;;;;;;10432274;28;20577;-75
2023/02/08 02:43:48;;;;;;;37.00;17.17;;;;;;;;;;10439791;28;20227;-80
2023/02/08 02:49:01;;;;;;;33.40;17.42;;;;;;;;;;10439857;28;20574;-73
2023/02/08 02:54:07;;;;;;;40.03;18.33;;;;;;;;;;10441363;28;20025;-73
2023/02/08 02:59:09;;;;;;;44.97;20.45;;;;;;;;;;10443221;28;20021;-78
2023/02/08 03:04:28;;;;;;;37.22;17.98;;;;;;;;;;10414061;28;20033;-79
2023/02/08 03:09:39;;;;;;;42.05;19.52;;;;;;;;;;10395454;28;1223396;-73
2023/02/08 03:14:47;;;;;;;36.25;16.90;;;;;;;;;;10443626;28;20115;-79
2023/02/08 03:19:53;;;;;;;44.60;20.58;;;;;;;;;;10449776;28;20075;-74
2023/02/08 03:24:54;;;;;;;61.70;23.17;;;;;;;;;;10449333;28;20032;-72
2023/02/08 03:29:57;;;;;;;54.33;24.42;;;;;;;;;;10448681;28;20039;-74
2023/02/08 03:35:15;;;;;;;51.92;21.67;;;;;;;;;;10448705;28;20056;-75
2023/02/08 03:40:25;;;;;;;43.78;20.42;;;;;;;;;;10428579;28;20024;-77
2023/02/08 03:45:46;;;;;;;49.63;22.80;;;;;;;;;;10447431;28;20444;-74
2023/02/08 03:50:48;;;;;;;58.90;23.23;;;;;;;;;;10448035;28;20550;-72
2023/02/08 03:55:50;;;;;;;45.03;21.17;;;;;;;;;;10448151;28;20449;-78
2023/02/08 04:00:54;;;;;;;43.20;22.35;;;;;;;;;;10449205;28;20029;-76
2023/02/08 04:05:54;;;;;;;46.05;20.90;;;;;;;;;;10446992;28;20041;-75
2023/02/08 04:10:54;;;;;;;50.13;22.98;;;;;;;;;;10448857;28;20499;-75
2023/02/08 04:15:55;;;;;;;50.42;23.33;;;;;;;;;;10447184;28;20029;-76
2023/02/08 04:20:55;;;;;;;53.15;24.52;;;;;;;;;;10440015;28;20458;-80
2023/02/08 04:25:55;;;;;;;66.85;24.80;;;;;;;;;;10434303;28;20021;-79
2023/02/08 04:30:56;;;;;;;52.33;24.20;;;;;;;;;;10446918;28;20048;-80
2023/02/08 04:35:57;;;;;;;52.90;23.20;;;;;;;;;;10435574;23;20085;-78
2023/02/08 04:40:57;;;;;;;46.03;28.27;;;;;;;;;;10387870;28;20116;-76
2023/02/08 04:45:57;;;;;;;54.90;27.08;;;;;;;;;;10387877;28;20038;-77
2023/02/08 04:50:59;;;;;;;43.83;22.35;;;;;;;;;;10380153;28;20057;-79
2023/02/08 04:55:59;;;;;;;53.13;25.30;;;;;;;;;;10375254;28;20403;-75
2023/02/08 05:00:59;;;;;;;54.80;28.38;;;;;;;;;;10386721;28;20032;-76
2023/02/08 05:06:00;;;;;;;48.00;23.45;;;;;;;;;;10375706;28;20479;-77
2023/02/08 05:11:00;;;;;;;62.40;29.05;;;;;;;;;;10380208;28;20411;-76
2023/02/08 05:16:01;;;;;;;53.60;24.90;;;;;;;;;;10375287;28;20036;-77
2023/02/08 05:21:02;;;;;;;62.40;25.27;;;;;;;;;;10356425;28;20042;-74
2023/02/08 05:26:07;;;;;;;62.92;22.98;;;;;;;;;;10384064;28;20076;-76
2023/02/08 05:31:15;;;;;;;60.65;26.45;;;;;;;;;;10384051;28;20036;-75
2023/02/08 05:36:17;;;;;;;64.72;27.60;;;;;;;;;;10385123;28;20493;-77
2023/02/08 05:41:18;;;;;;;66.00;29.02;;;;;;;;;;10369501;28;20087;-77
2023/02/08 05:46:18;;;;;;;67.30;28.77;;;;;;;;;;10383577;28;20152;-78
2023/02/08 05:51:19;;;;;;;58.28;28.23;;;;;;;;;;10372024;28;20036;-79
2023/02/08 05:56:20;;;;;;;68.18;33.40;;;;;;;;;;10374922;28;20041;-77
2023/02/08 06:01:20;;;;;;;61.45;31.20;;;;;;;;;;10381834;28;20028;-74
2023/02/08 06:06:21;;;;;;;67.80;26.73;;;;;;;;;;10373484;28;20034;-73
2023/02/08 06:11:21;;;;;;;74.68;33.67;;;;;;;;;;10358544;28;20026;-73
2023/02/08 06:16:21;;;;;;;67.67;29.20;;;;;;;;;;10398935;28;20032;-73
2023/02/08 06:21:21;;;;;;;66.25;28.45;;;;;;;;;;10379974;28;20037;-77
2023/02/08 06:26:22;;;;;;;61.67;29.90;;;;;;;;;;10379480;28;20682;-75
2023/02/08 06:31:22;;;;;;;68.82;31.15;;;;;;;;;;10357657;28;20172;-75
2023/02/08 06:36:22;;;;;;;54.88;27.90;;;;;;;;;;10366682;28;20060;-73
2023/02/08 06:41:23;;;;;;;56.58;27.35;;;;;;;;;;10367047;28;20124;-76
2023/02/08 06:46:23;;;;;;;48.42;24.45;;;;;;;;;;10382147;28;20030;-77
2023/02/08 06:51:23;;;;;;;66.95;29.60;;;;;;;;;;10387558;28;20032;-75
2023/02/08 06:56:23;;;;;;;54.50;28.00;;;;;;;;;;10391427;28;20010;-75
2023/02/08 07:01:24;;;;;;;59.25;27.20;;;;;;;;;;10409328;28;20098;-74
2023/02/08 07:06:24;;;;;;;58.17;26.48;;;;;;;;;;10391467;28;20056;-75
2023/02/08 07:11:24;;;;;;;61.63;24.55;;;;;;;;;;10391953;28;20082;-78
2023/02/08 07:16:26;;;;;;;55.33;27.92;;;;;;;;;;10391501;28;20032;-77
2023/02/08 07:26:31;;;;;;;68.90;30.65;;;;;;;;;;10391766;28;20579;-76
2023/02/08 07:31:32;;;;;;;101.82;44.55;;;;;;;;;;10388572;28;20113;-73
2023/02/08 07:36:34;;;;;;;87.50;36.50;;;;;;;;;;10391035;28;20014;-74
2023/02/08 07:41:34;;;;;;;79.82;36.05;;;;;;;;;;10346308;28;20025;-74
2023/02/08 07:46:35;;;;;;;65.80;29.38;;;;;;;;;;10407156;28;20025;-73
2023/02/08 07:51:35;;;;;;;71.13;30.13;;;;;;;;;;10407186;28;20112;-73
2023/02/08 07:56:35;;;;;;;71.47;31.37;;;;;;;;;;10387501;28;20014;-75
2023/02/08 08:01:35;;;;;;;69.20;31.47;;;;;;;;;;10385312;28;20017;-74
2023/02/08 08:06:36;;;;;;;73.40;32.80;;;;;;;;;;10403566;28;20029;-74
2023/02/08 08:11:36;;;;;;;62.53;27.77;;;;;;;;;;10386783;28;20075;-77
2023/02/08 08:16:36;;;;;;;63.42;30.20;;;;;;;;;;10385455;28;20034;-75
2023/02/08 08:21:37;;;;;;;54.10;24.70;;;;;;;;;;10385938;28;20061;-73
2023/02/08 08:26:37;;;;;;;46.67;22.10;;;;;;;;;;10388104;28;20124;-73
2023/02/08 08:31:38;;;;;;;59.30;22.08;;;;;;;;;;10388633;28;20156;-73
2023/02/08 08:36:38;;;;;;;49.75;20.40;;;;;;;;;;10378023;28;20029;-76
2023/02/08 08:41:38;;;;;;;50.63;21.73;;;;;;;;;;10388038;28;20025;-74
2023/02/08 08:46:38;;;;;;;51.15;21.40;;;;;;;;;;10387426;28;20071;-74
2023/02/08 08:51:39;;;;;;;47.03;21.23;;;;;;;;;;10388182;28;20037;-74
2023/02/08 08:56:39;;;;;;;44.23;21.40;;;;;;;;;;10388150;28;20176;-79
2023/02/08 09:01:41;;;;;;;42.87;18.60;;;;;;;;;;10365047;28;20018;-79
2023/02/08 09:06:41;;;;;;;48.25;21.98;;;;;;;;;;10379786;28;20018;-78
2023/02/08 09:11:42;;;;;;;37.93;17.77;;;;;;;;;;10391519;28;20076;-74
2023/02/08 09:16:46;;;;;;;48.28;20.38;;;;;;;;;;10370349;28;20083;-74
2023/02/08 09:21:46;;;;;;;48.03;22.65;;;;;;;;;;10404201;28;20159;-73
2023/02/08 09:26:46;;;;;;;58.27;21.13;;;;;;;;;;10386694;28;20123;-76
2023/02/08 09:31:47;;;;;;;56.90;24.08;;;;;;;;;;10385845;28;20064;-74
2023/02/08 09:36:47;;;;;;;42.27;19.37;;;;;;;;;;10386006;28;20017;-76
2023/02/08 09:41:57;;;;;;;36.38;16.35;;;;;;;;;;10385532;28;20777;-74
2023/02/08 09:47:20;;;;;;;40.30;20.17;;;;;;;;;;10385018;28;20569;-74
2023/02/08 09:52:23;;;;;;;31.67;14.75;;;;;;;;;;10377169;28;20034;-73
2023/02/08 09:57:25;;;;;;;38.80;16.42;;;;;;;;;;10384840;28;20104;-73
2023/02/08 10:02:31;;;;;;;29.98;14.80;;;;;;;;;;10384845;28;20393;-75
2023/02/08 10:07:33;;;;;;;34.05;14.20;;;;;;;;;;10384291;28;20109;-77
2023/02/08 10:12:47;;;;;;;30.73;13.90;;;;;;;;;;10385021;28;20038;-74
2023/02/08 10:17:56;;;;;;;31.55;12.73;;;;;;;;;;10384434;28;20027;-75
2023/02/08 10:23:06;;;;;;;38.13;14.65;;;;;;;;;;10383860;28;20061;-72
2023/02/08 10:28:15;;;;;;;30.55;13.80;;;;;;;;;;10383062;28;20096;-77
2023/02/08 10:33:26;;;;;;;37.00;15.48;;;;;;;;;;10400343;28;20399;-74
2023/02/08 10:38:28;;;;;;;31.00;12.80;;;;;;;;;;10399754;28;20080;-77
2023/02/08 10:43:33;;;;;;;36.25;15.85;;;;;;;;;;10383435;28;20087;-73
2023/02/08 10:48:33;;;;;;;32.70;14.35;;;;;;;;;;10383290;28;20029;-77
2023/02/08 10:53:33;;;;;;;28.77;12.85;;;;;;;;;;10383351;28;20103;-77
2023/02/08 10:58:35;;;;;;;29.00;13.00;;;;;;;;;;10381572;28;20028;-80
2023/02/08 11:03:38;;;;;;;24.60;11.88;;;;;;;;;;10379040;28;20022;-79
2023/02/08 11:08:52;;;;;;;26.10;11.63;;;;;;;;;;10378821;28;20116;-79
2023/02/08 11:14:03;;;;;;;18.98;10.90;;;;;;;;;;10379566;28;20021;-73
2023/02/08 11:19:06;;;;;;;22.80;12.23;;;;;;;;;;10366958;28;20479;-80
2023/02/08 11:24:26;;;;;;;35.60;12.27;;;;;;;;;;10351045;28;20137;-77
2023/02/08 11:29:28;;;;;;;26.30;12.80;;;;;;;;;;10318321;28;20050;-74
2023/02/08 11:34:29;;;;;;;39.78;12.75;;;;;;;;;;10386375;28;20018;-73
2023/02/08 11:39:41;;;;;;;17.35;9.70;;;;;;;;;;10337836;28;20507;-73
2023/02/08 11:44:42;;;;;;;20.95;10.85;;;;;;;;;;10336761;28;20021;-74
2023/02/08 11:49:49;;;;;;;26.23;11.98;;;;;;;;;;10373182;28;20558;-77
2023/02/08 11:54:50;;;;;;;22.83;10.57;;;;;;;;;;10390382;28;20021;-77
2023/02/08 12:00:08;;;;;;;25.50;10.43;;;;;;;;;;10389386;28;20385;-77
2023/02/08 12:05:11;;;;;;;28.58;9.63;;;;;;;;;;10389089;28;20018;-75
2023/02/08 12:10:17;;;;;;;21.35;9.90;;;;;;;;;;10389734;28;20513;-77
2023/02/08 12:15:17;;;;;;;33.60;10.90;;;;;;;;;;10388860;28;20028;-74
2023/02/08 12:20:32;;;;;;;18.33;8.32;;;;;;;;;;10389311;28;20034;-78
2023/02/08 12:25:36;;;;;;;19.83;9.25;;;;;;;;;;10388942;28;20045;-77
2023/02/08 12:30:51;;;;;;;19.58;9.88;;;;;;;;;;10387953;28;20053;-74
2023/02/08 12:36:00;;;;;;;23.73;9.80;;;;;;;;;;10388131;28;20033;-77
2023/02/08 12:41:18;;;;;;;19.38;8.43;;;;;;;;;;10406159;28;20104;-73
2023/02/08 12:46:18;;;;;;;;;;;;;;;;;;10361616;28;20025;-75
2023/02/08 12:51:37;;;;;;;25.60;8.15;;;;;;;;;;10404656;28;20351;-73
2023/02/08 12:56:40;;;;;;;13.95;7.13;;;;;;;;;;10387364;28;20018;-77
2023/02/08 13:01:43;;;;;;;17.33;8.23;;;;;;;;;;10387451;28;20021;-79
2023/02/08 13:06:46;;;;;;;12.45;5.88;;;;;;;;;;10386887;28;20458;-80
2023/02/08 13:11:46;;;;;;;14.38;6.53;;;;;;;;;;10369744;28;20025;-78
2023/02/08 13:16:49;;;;;;;16.50;7.78;;;;;;;;;;10363393;28;20022;-73
2023/02/08 13:21:50;;;;;;;18.30;7.80;;;;;;;;;;10336404;28;20091;-77
2023/02/08 13:26:50;;;;;;;18.38;8.07;;;;;;;;;;10339736;28;20029;-76
2023/02/08 13:31:54;;;;;;;12.00;5.33;;;;;;;;;;10336656;28;20061;-73
2023/02/08 13:36:58;;;;;;;15.10;6.63;;;;;;;;;;10335278;28;20026;-77
2023/02/08 13:41:58;;;;;;;11.65;5.88;;;;;;;;;;10327263;28;20571;-79
2023/02/08 13:46:59;;;;;;;11.93;6.30;;;;;;;;;;10345171;28;20110;-73
2023/02/08 13:52:01;;;;;;;12.77;5.57;;;;;;;;;;10324039;28;20042;-77
2023/02/08 13:57:01;;;;;;;14.25;7.47;;;;;;;;;;10326975;28;20419;-77
2023/02/08 14:02:11;;;;;;;16.77;8.00;;;;;;;;;;10334262;28;20034;-74
2023/02/08 14:07:14;;;;;;;16.50;8.32;;;;;;;;;;10360345;28;20036;-76
2023/02/08 14:12:22;;;;;;;12.15;7.47;;;;;;;;;;10369329;28;20040;-79
2023/02/08 14:17:25;;;;;;;22.38;9.15;;;;;;;;;;10360609;28;20101;-77
2023/02/08 14:22:51;;;;;;;20.13;8.85;;;;;;;;;;10384151;28;20462;-78
2023/02/08 14:27:54;;;;;;;18.73;9.07;;;;;;;;;;10381269;28;20048;-78
2023/02/08 14:33:03;;;;;;;17.98;9.32;;;;;;;;;;10383255;28;20036;-74
2023/02/08 14:38:19;;;;;;;14.57;9.10;;;;;;;;;;10401632;28;20021;-78
2023/02/08 14:43:19;;;;;;;21.10;10.50;;;;;;;;;;10383968;28;20095;-78
2023/02/08 14:48:46;;;;;;;20.92;11.52;;;;;;;;;;10383630;28;20083;-73
2023/02/08 14:53:57;;;;;;;21.73;11.38;;;;;;;;;;10380429;28;20034;-79
2023/02/08 14:59:00;;;;;;;20.73;10.98;;;;;;;;;;10364392;28;20018;-76
2023/02/08 15:04:01;;;;;;;18.10;10.05;;;;;;;;;;10331787;28;20030;-73
2023/02/08 15:09:02;;;;;;;23.00;12.73;;;;;;;;;;10339981;28;20038;-74
2023/02/08 15:14:03;;;;;;;20.88;11.30;;;;;;;;;;10341566;28;20029;-71
2023/02/08 15:19:04;;;;;;;20.38;10.80;;;;;;;;;;10321458;28;20049;-72
2023/02/08 15:24:15;;;;;;;18.30;9.75;;;;;;;;;;10340835;28;20532;-73
2023/02/08 15:29:17;;;;;;;19.05;9.55;;;;;;;;;;10340009;28;20489;-73
2023/02/08 15:34:18;;;;;;;14.50;8.18;;;;;;;;;;10322299;28;20028;-76
2023/02/08 15:39:26;;;;;;;22.58;9.30;;;;;;;;;;10336139;28;20059;-78
2023/02/08 15:44:28;;;;;;;20.58;10.38;;;;;;;;;;10345128;28;20026;-77
2023/02/08 15:49:40;;;;;;;18.50;10.55;;;;;;;;;;10338285;28;20030;-75
2023/02/08 15:54:41;;;;;;;18.35;9.35;;;;;;;;;;10343011;28;20022;-79
2023/02/08 15:59:43;;;;;;;21.73;10.40;;;;;;;;;;10320305;28;20088;-77
2023/02/08 16:04:44;;;;;;;26.25;11.43;;;;;;;;;;10322812;28;20152;-79
2023/02/08 16:09:46;;;;;;;21.35;11.60;;;;;;;;;;10321504;28;20033;-75
2023/02/08 16:14:46;;;;;;;16.25;8.38;;;;;;;;;;10314953;28;20116;-77
2023/02/08 16:19:50;;;;;;;21.50;9.77;;;;;;;;;;10339804;28;20076;-78
2023/02/08 16:24:50;;;;;;;21.85;9.98;;;;;;;;;;10342654;28;20089;-74
2023/02/08 16:29:51;;;;;;;20.60;11.18;;;;;;;;;;10327919;28;20129;-78
2023/02/08 16:34:51;;;;;;;20.77;11.95;;;;;;;;;;10337036;28;20427;-75
2023/02/08 16:39:53;;;;;;;20.85;9.95;;;;;;;;;;10337839;28;20022;-75
2023/02/08 16:44:56;;;;;;;21.10;7.95;;;;;;;;;;10320169;28;20452;-75
2023/02/08 16:49:57;;;;;;;18.63;9.32;;;;;;;;;;10322430;28;20027;-72
2023/02/08 16:54:57;;;;;;;13.80;8.93;;;;;;;;;;10315190;28;20492;-74
2023/02/08 16:59:59;;;;;;;24.63;11.43;;;;;;;;;;10320708;28;20053;-76
2023/02/08 17:04:59;;;;;;;19.98;11.13;;;;;;;;;;10311774;28;20029;-74
2023/02/08 17:10:00;;;;;;;36.87;12.03;;;;;;;;;;10306301;28;20041;-74
2023/02/08 17:15:00;;;;;;;31.65;14.10;;;;;;;;;;10321987;28;20321;-75
2023/02/08 17:20:00;;;;;;;32.40;13.65;;;;;;;;;;10304401;28;20508;-73
2023/02/08 17:25:00;;;;;;;21.60;12.43;;;;;;;;;;10332755;28;20112;-78
2023/02/08 17:30:01;;;;;;;29.48;13.20;;;;;;;;;;10342261;28;20049;-78
2023/02/08 17:35:01;;;;;;;42.08;14.85;;;;;;;;;;10333107;28;20037;-74
2023/02/08 17:40:01;;;;;;;29.65;13.43;;;;;;;;;;10310819;28;20022;-74
2023/02/08 17:45:02;;;;;;;26.35;13.57;;;;;;;;;;10344503;28;20032;-73
2023/02/08 17:50:03;;;;;;;22.65;12.27;;;;;;;;;;10337358;28;20041;-72
2023/02/08 17:55:04;;;;;;;30.10;16.70;;;;;;;;;;10334693;28;20030;-79
2023/02/08 18:00:07;;;;;;;32.67;16.35;;;;;;;;;;10326035;28;20034;-74
2023/02/08 18:05:08;;;;;;;38.75;19.77;;;;;;;;;;10329997;28;20030;-79
2023/02/08 18:10:09;;;;;;;49.67;22.17;;;;;;;;;;10342482;28;20056;-78
2023/02/08 18:15:12;;;;;;;47.33;23.88;;;;;;;;;;10340160;28;20049;-75
2023/02/08 18:20:13;;;;;;;45.80;23.98;;;;;;;;;;10328156;28;20028;-80
2023/02/08 18:25:14;;;;;;;47.20;24.65;;;;;;;;;;10341064;28;20072;-78
2023/02/08 18:30:15;;;;;;;52.33;23.55;;;;;;;;;;10342495;28;20022;-80
2023/02/08 18:35:15;;;;;;;44.53;22.33;;;;;;;;;;10336322;28;20038;-72
2023/02/08 18:40:17;;;;;;;39.72;21.27;;;;;;;;;;10323941;28;20334;-76
2023/02/08 18:45:17;;;;;;;41.97;22.58;;;;;;;;;;10327781;28;20033;-78
2023/02/08 18:50:18;;;;;;;57.83;22.33;;;;;;;;;;10332353;28;20041;-74
2023/02/08 18:55:18;;;;;;;43.97;21.88;;;;;;;;;;10337787;28;20037;-77
2023/02/08 19:00:18;;;;;;;37.13;19.47;;;;;;;;;;10347704;28;20022;-80
2023/02/08 19:05:19;;;;;;;37.10;15.38;;;;;;;;;;10331666;28;20049;-81
2023/02/08 19:10:19;;;;;;;34.70;19.03;;;;;;;;;;10346844;28;20067;-76
2023/02/08 19:15:19;;;;;;;38.70;21.67;;;;;;;;;;10338824;28;20280;-73
2023/02/08 19:20:19;;;;;;;43.22;22.13;;;;;;;;;;10344092;28;20050;-75
2023/02/08 19:25:20;;;;;;;43.38;22.08;;;;;;;;;;10349442;28;20116;-74
2023/02/08 19:30:21;;;;;;;42.03;20.70;;;;;;;;;;10348826;28;20069;-72
2023/02/08 19:35:22;;;;;;;39.55;20.08;;;;;;;;;;10339340;28;20034;-76
2023/02/08 19:40:24;;;;;;;35.08;18.05;;;;;;;;;;10333021;28;20586;-80
2023/02/08 19:45:24;;;;;;;42.55;18.95;;;;;;;;;;10335579;28;20040;-79
2023/02/08 19:50:24;;;;;;;42.85;17.52;;;;;;;;;;10340216;28;20032;-75
2023/02/08 19:55:25;;;;;;;37.55;19.52;;;;;;;;;;10339170;28;20468;-79
2023/02/08 20:00:25;;;;;;;49.22;22.25;;;;;;;;;;10316280;28;20099;-79
2023/02/08 20:05:25;;;;;;;39.67;17.58;;;;;;;;;;10319643;28;20762;-73
2023/02/08 20:10:25;;;;;;;41.28;15.70;;;;;;;;;;10325164;28;20041;-82
2023/02/08 20:15:27;;;;;;;49.25;19.00;;;;;;;;;;10335801;28;20032;-79
2023/02/08 20:20:28;;;;;;;45.05;19.83;;;;;;;;;;10343292;28;20030;-74
2023/02/08 20:25:28;;;;;;;46.08;19.02;;;;;;;;;;10343245;28;20065;-77
2023/02/08 20:30:29;;;;;;;45.22;20.48;;;;;;;;;;10332539;28;20054;-75
2023/02/08 20:35:29;;;;;;;51.08;18.88;;;;;;;;;;10334320;28;20071;-80
2023/02/08 20:40:30;;;;;;;36.40;17.50;;;;;;;;;;10307074;28;20080;-78
2023/02/08 20:45:31;;;;;;;35.20;16.52;;;;;;;;;;10383121;23;20061;-73
2023/02/08 20:50:33;;;;;;;32.75;15.60;;;;;;;;;;10392634;28;20036;-78
2023/02/08 20:55:33;;;;;;;33.45;18.02;;;;;;;;;;10380350;28;20029;-78
2023/02/08 21:00:35;;;;;;;45.08;17.17;;;;;;;;;;10380937;28;20076;-80
2023/02/08 21:05:36;;;;;;;28.98;12.93;;;;;;;;;;10379782;28;20037;-81
2023/02/08 21:10:37;;;;;;;32.90;13.23;;;;;;;;;;10371256;28;20025;-81
2023/02/08 21:15:43;;;;;;;30.83;14.43;;;;;;;;;;10379425;28;20027;-78
2023/02/08 21:20:43;;;;;;;34.08;14.25;;;;;;;;;;10381114;28;20474;-80
2023/02/08 21:25:44;;;;;;;29.85;13.50;;;;;;;;;;10371926;28;20454;-80
2023/02/08 21:30:44;;;;;;;39.63;12.97;;;;;;;;;;10392123;28;20013;-78
2023/02/08 21:35:44;;;;;;;24.58;12.15;;;;;;;;;;10374662;28;20291;-80
2023/02/08 21:40:45;;;;;;;19.15;10.75;;;;;;;;;;10375641;28;20028;-78
2023/02/08 21:45:45;;;;;;;23.13;11.13;;;;;;;;;;10395049;28;20045;-77
2023/02/08 21:56:07;;;;;;;15.90;11.75;;;;;;;;;;10391414;28;20563;-76
2023/02/08 22:01:07;;;;;;;26.77;10.32;;;;;;;;;;10354262;28;20021;-78
2023/02/08 22:06:07;;;;;;;19.97;10.90;;;;;;;;;;10394505;28;20079;-72
2023/02/08 22:11:07;;;;;;;26.92;13.40;;;;;;;;;;10390104;28;20562;-74
2023/02/08 22:16:08;;;;;;;27.05;10.10;;;;;;;;;;10376412;28;20526;-75
2023/02/08 22:21:08;;;;;;;21.05;10.50;;;;;;;;;;10387081;28;20021;-72
2023/02/08 22:26:09;;;;;;;23.65;11.82;;;;;;;;;;10383337;28;20029;-76
2023/02/08 22:31:11;;;;;;;20.47;10.33;;;;;;;;;;10379801;28;20022;-75
2023/02/08 22:36:11;;;;;;;20.38;10.82;;;;;;;;;;10395262;28;20029;-72
2023/02/08 22:41:12;;;;;;;24.20;11.13;;;;;;;;;;10380563;28;20534;-77
2023/02/08 22:46:13;;;;;;;26.73;10.30;;;;;;;;;;10380403;28;20092;-75
2023/02/08 22:51:15;;;;;;;25.73;12.15;;;;;;;;;;10379394;28;20454;-72
2023/02/08 22:56:17;;;;;;;39.38;12.90;;;;;;;;;;10379893;28;20026;-72
2023/02/08 23:01:17;;;;;;;39.80;13.65;;;;;;;;;;10381382;28;20021;-69
2023/02/08 23:06:19;;;;;;;28.53;12.73;;;;;;;;;;10380933;28;20499;-73
2023/02/08 23:11:19;;;;;;;23.05;11.60;;;;;;;;;;10380443;28;20295;-77
2023/02/08 23:16:19;;;;;;;40.60;14.63;;;;;;;;;;10379484;28;20122;-76
2023/02/08 23:21:20;;;;;;;27.77;11.27;;;;;;;;;;10385255;28;20032;-78
2023/02/08 23:26:21;;;;;;;23.63;11.63;;;;;;;;;;10396703;28;20025;-78
2023/02/08 23:31:21;;;;;;;25.05;12.50;;;;;;;;;;10365999;28;20381;-74
2023/02/08 23:36:22;;;;;;;25.57;12.87;;;;;;;;;;10387311;28;20562;-74
2023/02/08 23:41:22;;;;;;;27.60;13.80;;;;;;;;;;10387336;28;20765;-78
2023/02/08 23:46:24;;;;;;;35.83;13.15;;;;;;;;;;10386992;28;20042;-77
2023/02/08 23:51:24;;;;;;;26.83;9.57;;;;;;;;;;10404624;28;20061;-77
2023/02/08 23:56:26;;;;;;;25.52;11.48;;;;;;;;;;10403796;28;20285;-78
